METAR LOCAUX

2021/05/16 22:30 LFST 162230Z AUTO 19009KT 9999 SCT036 BKN052 BKN084 11/09 Q1006 TEMPO 4000 SHRA SCT030TCU
2021/05/16 22:20 EDSB 162220Z AUTO 21009KT 9999 // BKN039/// BKN054/// BKN071/// 11/10 Q1005
2021/05/16 22:30 LFGA 162230Z AUTO 19007KT 9999 ///CB 10/08 Q1007
www.noaa.gov

Ne pas utiliser pour préparer ou effectuer un vol: Utilisez la documentation officielle disponible sur aviation.meteo.fr (Aéroweb)


"Le soleil du matin ne dure pas forcément toute la journée."

Animation satellite IR

Meteociel.fr

"Derrière chaque nuage se cache le ciel bleu."

Radar pluie

Infoclimat.fr

"Si tu veux l’arc-en-ciel, tu dois supporter la pluie."
Dolly Parton

Nébulosité (octas)

Meteociel.fr

"Le soleil est souvent obscurci par les nuages et la raison par les passions."
Démophile

Impacts de foudre

www.meteo60.fr

"Celui que frappe la foudre n'entend pas le tonnerre."

Vigilance météo

vigilance-meteo.fr

"Tout nuage n'enfante pas une tempête."
William Shakespeare

TAF locaux

2021/05/16 18:43 TAF AMD LFST 161735Z 1618/1718 20011KT 9999 SCT030 BKN055 TEMPO 1618/1718 SHRA SCT030TCU PROB40 TEMPO 1618/1620 26015G25KT 3000 TSRA SCT030CB BKN040 PROB40 TEMPO 1620/1624 4000 SHRA FEW028CB PROB40 TEMPO 1710/1718 28015G25KT 4000 TSRA FEW030CB BKN040
2021/05/16 18:49 TAF EDSB 161742Z 1618/1718 20011KT 9999 SCT035 TEMPO 1618/1623 SHRA BKN030CB PROB40 TEMPO 1618/1622 22015G30KT 4000 TSRA BKN020CB PROB30 TEMPO 1701/1706 SHRA BKN030CB BECMG 1706/1709 22015G25KT TEMPO 1709/1718 SHRA BKN030CB PROB40 TEMPO 1709/1718 23020G35KT 4000 TSRA BKN010 BKN020CB
www.noaa.gov

Ne pas utiliser pour préparer ou effectuer un vol: Utilisez la documentation officielle disponible sur aviation.meteo.fr (Aéroweb)


"Les jours où le ciel est gris, le soleil n'a pas disparu à tout jamais."
Arnaud Desjardins

Prévisions 7 jours


Meteoblue.com

"Quand les crapauds chantent, le beau temps s'avance !"